Time;durP1;ratioP1;P1;durP2;ratioP2;P2;SDS_P1;SDS_P2;PMS_P1;PMS_P2;Temp;Humidity;BMP_temperature;BMP_pressure;BME280_temperature;BME280_humidity;BME280_pressure;Samples;Min_cycle;Max_cycle;Signal;HPM_P1;HPM_P2
2023/03/25 00:00:16;;;;;;;9.88;1.70;;;;;;;13.05;56.00;100149.66;4946916;28;114960;-79
2023/03/25 00:02:46;;;;;;;6.25;1.42;;;;;;;13.05;56.05;100147.00;4947396;28;124006;-79
2023/03/25 00:05:15;;;;;;;8.07;1.70;;;;;;;13.05;56.09;100149.66;4970391;28;124502;-79
2023/03/25 00:07:43;;;;;;;4.63;1.40;;;;;;;13.08;56.17;100147.75;4962074;28;113706;-79
2023/03/25 00:10:12;;;;;;;5.10;1.35;;;;;;;13.08;56.01;100142.44;4936266;28;115282;-79
2023/03/25 00:12:41;;;;;;;7.22;1.70;;;;;;;13.08;56.08;100142.44;4946101;28;124104;-79
2023/03/25 00:15:10;;;;;;;4.65;1.48;;;;;;;13.08;55.88;100137.97;4959982;28;124193;-79
2023/03/25 00:17:38;;;;;;;8.32;1.98;;;;;;;13.09;56.09;100139.69;4941718;28;115261;-79
2023/03/25 00:20:10;;;;;;;8.48;1.42;;;;;;;13.10;55.90;100135.22;4959225;28;114236;-80
2023/03/25 00:22:42;;;;;;;6.03;1.73;;;;;;;13.10;55.76;100135.22;4941873;28;123774;-79
2023/03/25 00:25:17;;;;;;;8.32;1.60;;;;;;;13.10;55.85;100136.03;4944574;28;123027;-79
2023/03/25 00:27:47;;;;;;;6.88;1.73;;;;;;;13.12;55.54;100138.59;4948748;28;114972;-79
2023/03/25 00:30:15;;;;;;;11.25;1.70;;;;;;;13.12;55.84;100135.94;4937644;28;114242;-79
2023/03/25 00:32:48;;;;;;;9.48;1.83;;;;;;;13.13;55.78;100134.97;4927730;28;123881;-79
2023/03/25 00:35:20;;;;;;;5.20;1.58;;;;;;;13.13;55.58;100140.28;4928534;28;126038;-80
2023/03/25 00:37:58;;;;;;;8.10;1.50;;;;;;;13.15;55.49;100143.72;4951648;28;115802;-80
2023/03/25 00:40:29;;;;;;;5.53;1.65;;;;;;;13.15;55.52;100149.91;4949524;28;114576;-79
2023/03/25 00:42:56;;;;;;;7.82;1.80;;;;;;;13.16;55.51;100150.72;4931713;28;125674;-79
2023/03/25 00:45:24;;;;;;;6.03;1.48;;;;;;;13.17;55.49;100147.13;4945600;28;125593;-79
2023/03/25 00:47:51;;;;;;;4.30;1.50;;;;;;;13.20;55.33;100149.56;4948232;28;115298;-79
2023/03/25 00:50:20;;;;;;;8.35;1.90;;;;;;;13.20;55.39;100141.59;4929951;28;114825;-80
2023/03/25 00:52:48;;;;;;;12.43;2.25;;;;;;;13.22;55.23;100142.34;4947676;28;126339;-79
2023/03/25 00:55:16;;;;;;;8.07;1.67;;;;;;;13.22;55.31;100143.22;4945862;28;125519;-79
2023/03/25 00:57:43;;;;;;;8.55;1.75;;;;;;;13.25;55.13;100150.13;4936387;28;114653;-79
2023/03/25 01:00:14;;;;;;;7.65;1.73;;;;;;;13.22;54.97;100137.91;4935368;28;115344;-79
2023/03/25 01:02:42;;;;;;;6.63;1.70;;;;;;;13.25;55.11;100144.81;4944465;28;124257;-79
2023/03/25 01:05:10;;;;;;;6.30;1.40;;;;;;;13.25;54.84;100139.47;4946547;28;124929;-79
2023/03/25 01:07:40;;;;;;;12.10;1.73;;;;;;;13.24;54.96;100137.75;4962113;28;115388;-79
2023/03/25 01:10:08;;;;;;;7.43;1.55;;;;;;;13.24;54.81;100140.44;4946577;28;114829;-79
2023/03/25 01:12:35;;;;;;;5.40;1.27;;;;;;;13.24;54.86;100143.09;4929139;28;127004;-79
2023/03/25 01:15:03;;;;;;;7.95;1.40;;;;;;;13.24;54.77;100137.75;4946074;28;124084;-79
2023/03/25 01:17:30;;;;;;;6.85;2.20;;;;;;;13.23;54.83;100136.09;4945227;28;115447;-79
2023/03/25 01:19:57;;;;;;;7.00;1.67;;;;;;;13.24;54.56;100137.75;4941541;28;115151;-79
2023/03/25 01:22:25;;;;;;;5.40;1.60;;;;;;;13.22;54.73;100134.38;4958237;28;124700;-79
2023/03/25 01:24:52;;;;;;;7.32;1.40;;;;;;;13.22;54.68;100134.38;4953563;28;122717;-79
2023/03/25 01:27:19;;;;;;;6.22;1.48;;;;;;;13.22;54.66;100139.69;4924335;28;114280;-80
2023/03/25 01:29:46;;;;;;;5.28;1.40;;;;;;;13.21;54.64;100138.84;4931613;28;114737;-80
2023/03/25 01:32:13;;;;;;;5.72;1.27;;;;;;;13.22;54.55;100134.38;4956210;28;124125;-77
2023/03/25 01:34:41;;;;;;;4.88;1.50;;;;;;;13.21;54.62;100138.00;4955170;28;125746;-77
2023/03/25 01:37:08;;;;;;;6.10;1.48;;;;;;;13.20;54.42;100136.28;4923733;28;115059;-78
2023/03/25 01:39:36;;;;;;;6.60;1.50;;;;;;;13.20;54.92;100131.84;4921634;28;114210;-78
2023/03/25 01:42:04;;;;;;;9.35;1.45;;;;;;;13.18;54.56;100132.88;4955928;28;124637;-78
2023/03/25 01:44:31;;;;;;;4.63;1.55;;;;;;;13.19;54.55;100139.91;4939418;28;124579;-77
2023/03/25 01:47:03;;;;;;;5.95;2.00;;;;;;;13.18;54.45;100148.81;4928280;28;114642;-78
2023/03/25 01:49:39;;;;;;;5.28;1.38;;;;;;;13.17;54.46;100136.50;4940893;28;114091;-78
2023/03/25 01:52:09;;;;;;;3.25;1.38;;;;;;;13.16;54.57;100130.31;4944420;28;125088;-78
2023/03/25 01:54:38;;;;;;;8.25;1.60;;;;;;;13.17;54.57;100141.81;4961693;28;124482;-79
2023/03/25 01:57:07;;;;;;;5.40;1.73;;;;;;;13.17;54.75;100132.03;4940651;28;113982;-78
2023/03/25 01:59:36;;;;;;;4.72;1.50;;;;;;;13.17;54.50;100136.50;4949211;28;112080;-78
2023/03/25 02:02:07;;;;;;;6.93;1.50;;;;;;;13.15;54.44;100133.09;4964297;28;123094;-78
2023/03/25 02:04:50;;;;;;;5.75;1.30;;;;;;;13.13;54.52;100129.66;4938987;28;122098;-78
2023/03/25 02:07:18;;;;;;;4.28;1.40;;;;;;;13.13;54.46;100140.28;4947572;28;114245;-77
2023/03/25 02:09:46;;;;;;;6.22;1.40;;;;;;;13.12;54.44;100133.28;4940968;28;116615;-79
2023/03/25 02:12:13;;;;;;;4.10;1.33;;;;;;;13.10;54.78;100135.22;4956013;28;123658;-77
2023/03/25 02:14:40;;;;;;;4.32;1.40;;;;;;;13.08;54.62;100131.81;4954788;28;123547;-78
2023/03/25 02:17:51;;;;;;;6.90;1.80;;;;;;;13.02;54.80;100125.94;4942744;28;115173;-78
2023/03/25 02:21:02;;;;;;;5.03;1.48;;;;;;;12.97;54.90;100129.84;4959647;28;115404;-78
2023/03/25 02:23:40;;;;;;;5.40;1.45;;;;;;;12.90;55.03;100121.41;4954441;28;123995;-78
2023/03/25 02:26:17;;;;;;;4.13;1.50;;;;;;;12.87;55.30;100129.63;4946239;28;124727;-77
2023/03/25 02:28:56;;;;;;;5.45;1.48;;;;;;;12.84;55.17;100119.16;4963109;28;114214;-77
2023/03/25 02:31:50;;;;;;;4.63;1.50;;;;;;;12.82;55.39;100132.56;4948326;28;115814;-77
2023/03/25 02:34:36;;;;;;;5.45;1.50;;;;;;;12.80;55.38;100128.31;4951468;28;125353;-78
2023/03/25 02:37:36;;;;;;;4.90;1.30;;;;;;;12.78;55.33;100135.53;4964515;28;125104;-78
2023/03/25 02:40:19;;;;;;;4.15;1.27;;;;;;;12.76;55.33;100116.19;4959026;28;114280;-78
2023/03/25 02:42:53;;;;;;;3.08;1.42;;;;;;;12.75;55.34;100119.78;4951624;28;115312;-78
2023/03/25 02:45:28;;;;;;;4.82;1.10;;;;;;;12.75;55.18;100125.09;4950571;28;124449;-77
2023/03/25 02:48:01;;;;;;;5.43;1.40;;;;;;;12.74;55.50;100123.41;4955056;28;124308;-78
2023/03/25 02:50:44;;;;;;;7.15;1.52;;;;;;;12.73;55.53;100121.69;4939208;28;114582;-78
2023/03/25 02:53:19;;;;;;;6.07;1.50;;;;;;;12.70;55.57;100121.91;4945678;28;114486;-78
2023/03/25 02:55:48;;;;;;;6.32;1.48;;;;;;;12.65;55.77;100120.38;4957772;28;123921;-78
2023/03/25 02:58:20;;;;;;;3.47;1.42;;;;;;;12.62;56.08;100120.59;4947697;28;123428;-78
2023/03/25 03:00:50;;;;;;;4.43;1.67;;;;;;;12.59;55.98;100119.94;4951413;28;113667;-77
2023/03/25 03:03:18;;;;;;;6.25;1.63;;;;;;;12.57;56.19;100117.38;4934910;28;114229;-77
2023/03/25 03:05:49;;;;;;;6.57;1.70;;;;;;;12.55;56.14;100111.31;4948519;28;125086;-77
2023/03/25 03:09:01;;;;;;;7.03;1.52;;;;;;;12.52;56.08;100114.16;4947140;28;124357;-78
2023/03/25 03:11:40;;;;;;;6.72;1.40;;;;;;;12.52;56.45;100103.53;4923611;28;115283;-78
2023/03/25 03:14:36;;;;;;;6.57;1.90;;;;;;;12.51;56.24;100101.84;4928912;28;116680;-78
2023/03/25 03:17:32;;;;;;;4.63;1.27;;;;;;;12.48;56.34;100098.53;4943368;28;125326;-78
2023/03/25 03:20:06;;;;;;;;;;;;;;;12.48;56.02;100102.03;4958849;28;123830;-78
2023/03/25 03:22:42;;;;;;;6.35;1.35;;;;;;;12.49;56.14;100109.06;4941937;28;114612;-78
2023/03/25 03:25:31;;;;;;;2.92;1.40;;;;;;;12.47;56.38;100105.66;4933683;28;115159;-78
2023/03/25 03:28:09;;;;;;;7.90;1.30;;;;;;;12.46;56.38;100104.78;4940119;28;125618;-78
2023/03/25 03:30:46;;;;;;;6.47;1.75;;;;;;;12.46;56.46;100111.91;4942359;28;123182;-78
2023/03/25 03:33:28;;;;;;;6.72;1.38;;;;;;;12.46;56.28;100114.56;4947236;28;115310;-78
2023/03/25 03:36:00;;;;;;;12.10;1.80;;;;;;;12.45;56.35;100118.16;4949404;28;115045;-78
2023/03/25 03:38:34;;;;;;;9.32;1.63;;;;;;;12.45;56.43;100107.53;4951789;28;125675;-78
2023/03/25 03:41:10;;;;;;;6.88;1.30;;;;;;;12.47;56.37;100116.28;4956774;28;123842;-78
2023/03/25 03:43:46;;;;;;;5.88;1.40;;;;;;;12.47;56.41;100105.66;4932944;28;115180;-78
2023/03/25 03:46:28;;;;;;;7.95;1.70;;;;;;;12.47;56.49;100121.59;4941928;28;113509;-78
2023/03/25 03:48:58;;;;;;;8.70;1.58;;;;;;;12.44;56.63;100127.94;4960348;28;125277;-78
2023/03/25 03:51:37;;;;;;;6.47;1.38;;;;;;;12.43;56.81;100114.75;4959215;28;124642;-78
2023/03/25 03:54:07;;;;;;;5.65;1.60;;;;;;;12.42;56.89;100113.06;4961793;28;114959;-78
2023/03/25 03:56:52;;;;;;;4.57;1.45;;;;;;;12.41;57.06;100111.34;4946683;28;114362;-78
2023/03/25 03:59:27;;;;;;;7.82;1.73;;;;;;;12.38;57.26;100116.88;4961036;28;123824;-78
2023/03/25 04:02:05;;;;;;;7.40;1.50;;;;;;;12.36;57.15;100124.09;4943383;28;124016;-78
2023/03/25 04:04:33;;;;;;;11.10;1.70;;;;;;;12.34;56.99;100116.22;4942280;28;115948;-78
2023/03/25 04:07:15;;;;;;;9.70;1.70;;;;;;;12.33;57.09;100113.66;4964511;28;115365;-78
2023/03/25 04:10:13;;;;;;;6.95;1.40;;;;;;;12.31;57.31;100107.59;4963413;28;124454;-78
2023/03/25 04:12:48;;;;;;;7.20;1.45;;;;;;;12.31;57.22;100115.56;4941255;28;123925;-78
2023/03/25 04:15:16;;;;;;;8.02;1.50;;;;;;;12.31;57.23;100115.56;4948719;28;114528;-78
2023/03/25 04:17:43;;;;;;;8.93;1.65;;;;;;;12.31;57.37;100110.25;4940488;28;113621;-78
2023/03/25 04:20:17;;;;;;;7.97;1.45;;;;;;;12.30;57.26;100119.16;4958387;28;124846;-78
2023/03/25 04:22:44;;;;;;;6.32;1.65;;;;;;;12.31;57.30;100115.56;4940325;28;123691;-78
2023/03/25 04:25:12;;;;;;;6.93;1.60;;;;;;;12.31;57.41;100102.28;4944735;28;113873;-80
2023/03/25 04:27:40;;;;;;;10.63;1.80;;;;;;;12.31;57.36;100100.47;4960542;28;113838;-78
2023/03/25 04:30:08;;;;;;;7.78;2.00;;;;;;;12.32;57.41;100111.94;4944980;28;123275;-79
2023/03/25 04:32:35;;;;;;;5.25;1.60;;;;;;;12.32;57.41;100106.63;4967909;28;123462;-78
2023/03/25 04:35:03;;;;;;;8.35;1.77;;;;;;;12.34;57.21;100104.72;4947466;28;113976;-78
2023/03/25 04:37:32;;;;;;;8.43;1.35;;;;;;;12.35;57.26;100106.44;4945956;28;113603;-78
2023/03/25 04:39:59;;;;;;;5.82;1.40;;;;;;;12.36;57.24;100108.16;4940748;28;124024;-79
2023/03/25 04:42:31;;;;;;;6.47;2.00;;;;;;;12.37;57.28;100123.13;4946009;28;124511;-78
2023/03/25 04:45:00;;;;;;;6.65;1.35;;;;;;;12.38;57.26;100116.88;4947457;28;96865;-78
2023/03/25 04:47:27;;;;;;;5.28;1.30;;;;;;;12.38;57.17;100122.19;4958373;28;114356;-78
2023/03/25 04:49:55;;;;;;;5.43;1.17;;;;;;;12.38;57.24;100106.25;4948590;28;125679;-78
2023/03/25 04:52:22;;;;;;;6.95;1.52;;;;;;;12.39;57.23;100098.16;4929646;28;125079;-78
2023/03/25 04:54:50;;;;;;;5.05;1.42;;;;;;;12.40;57.13;100104.34;4943981;28;116477;-79
2023/03/25 04:57:17;;;;;;;6.95;1.48;;;;;;;12.40;57.14;100109.66;4946577;28;115278;-78
2023/03/25 04:59:44;;;;;;;5.05;1.10;;;;;;;12.41;57.22;100106.03;4962407;28;123783;-78
2023/03/25 05:02:12;;;;;;;6.13;1.23;;;;;;;12.40;56.94;100109.66;4939508;28;124271;-79
2023/03/25 05:04:41;;;;;;;6.47;1.30;;;;;;;12.40;57.20;100099.88;4964699;28;113351;-78
2023/03/25 05:07:09;;;;;;;5.57;1.40;;;;;;;12.40;56.92;100093.72;4925980;28;114704;-78
2023/03/25 05:09:36;;;;;;;6.40;1.30;;;;;;;12.40;57.02;100093.72;4932186;28;123327;-78
2023/03/25 05:12:03;;;;;;;6.07;1.30;;;;;;;12.40;57.27;100099.03;4943336;28;123978;-78
2023/03/25 05:14:30;;;;;;;4.40;1.20;;;;;;;12.39;57.08;100102.63;4963494;28;114216;-79
2023/03/25 05:16:59;;;;;;;9.77;1.10;;;;;;;12.36;57.09;100105.50;4934875;28;112843;-79
2023/03/25 05:19:27;;;;;;;4.90;1.30;;;;;;;12.34;57.13;100104.72;4924229;28;125068;-78
2023/03/25 05:21:55;;;;;;;8.77;1.10;;;;;;;12.32;57.23;100101.31;4965625;28;125662;-78
2023/03/25 05:24:22;;;;;;;6.07;1.60;;;;;;;12.29;57.40;100101.53;4945148;28;114658;-79
2023/03/25 05:26:49;;;;;;;7.40;1.25;;;;;;;12.28;57.40;100105.97;4963470;28;113748;-78
2023/03/25 05:29:16;;;;;;;9.23;1.73;;;;;;;12.26;57.30;100108.75;4962095;28;124763;-78
2023/03/25 05:31:45;;;;;;;6.97;1.38;;;;;;;12.23;57.62;100113.41;4941703;28;125204;-78
2023/03/25 05:34:15;;;;;;;4.22;1.48;;;;;;;12.22;57.50;100112.56;4952433;28;114008;-79
2023/03/25 05:36:43;;;;;;;6.70;1.50;;;;;;;12.20;57.67;100109.13;4932825;28;115108;-78
2023/03/25 05:39:11;;;;;;;6.82;1.33;;;;;;;12.19;57.66;100106.59;4958884;28;124352;-78
2023/03/25 05:41:38;;;;;;;7.18;1.35;;;;;;;12.17;57.75;100119.94;4948952;28;123137;-78
2023/03/25 05:44:07;;;;;;;5.95;1.33;;;;;;;12.14;57.82;100120.13;4943054;28;114239;-78
2023/03/25 05:46:35;;;;;;;4.50;1.38;;;;;;;12.13;58.00;100122.88;4926324;28;114395;-78
2023/03/25 05:49:02;;;;;;;6.57;1.45;;;;;;;12.11;57.95;100136.28;4938152;28;123904;-78
2023/03/25 05:51:32;;;;;;;6.07;1.05;;;;;;;12.11;58.00;100141.56;4958048;28;123682;-78
2023/03/25 05:54:00;;;;;;;4.90;1.20;;;;;;;12.11;58.18;100138.94;4941908;28;113947;-78
2023/03/25 05:56:28;;;;;;;5.95;1.27;;;;;;;12.10;58.08;100137.22;4960185;28;113109;-78
2023/03/25 05:58:56;;;;;;;4.40;1.17;;;;;;;12.10;58.08;100139.84;4948764;28;123897;-79
2023/03/25 06:01:23;;;;;;;4.43;1.30;;;;;;;12.11;58.23;100140.69;4929834;28;125162;-78
2023/03/25 06:04:01;;;;;;;7.10;1.50;;;;;;;12.10;58.45;100139.84;4951272;28;114697;-78
2023/03/25 06:06:32;;;;;;;6.65;1.65;;;;;;;12.12;58.37;100124.69;4946547;28;115007;-79
2023/03/25 06:09:01;;;;;;;4.75;1.33;;;;;;;12.12;58.18;100135.31;4944837;28;124210;-78
2023/03/25 06:11:28;;;;;;;5.22;1.23;;;;;;;12.11;57.89;100130.97;4947441;28;124414;-78
2023/03/25 06:13:55;;;;;;;5.90;1.08;;;;;;;12.12;57.80;100137.97;4961113;28;116004;-78
2023/03/25 06:16:28;;;;;;;6.60;1.55;;;;;;;12.12;58.18;100142.41;4951199;28;114041;-78
2023/03/25 06:18:58;;;;;;;4.43;1.60;;;;;;;12.13;58.01;100137.03;4944722;28;125259;-78
2023/03/25 06:21:29;;;;;;;5.35;1.52;;;;;;;12.15;58.17;100136.91;4946745;28;125202;-79
2023/03/25 06:23:58;;;;;;;11.20;1.45;;;;;;;12.16;57.99;100150.09;4960377;28;114323;-78
2023/03/25 06:26:25;;;;;;;5.43;1.23;;;;;;;12.17;57.62;100138.53;4966387;28;114101;-78
2023/03/25 06:28:53;;;;;;;8.40;2.00;;;;;;;12.17;57.80;100141.19;4949025;28;124453;-78
2023/03/25 06:31:25;;;;;;;9.30;1.60;;;;;;;12.18;57.74;100142.88;4940051;28;125044;-78
2023/03/25 06:33:54;;;;;;;6.38;1.38;;;;;;;12.18;57.50;100136.72;4921564;28;115969;-78
2023/03/25 06:36:24;;;;;;;6.82;1.60;;;;;;;12.18;57.66;100140.22;4959130;28;117083;-78
2023/03/25 06:38:52;;;;;;;5.45;1.27;;;;;;;12.18;57.52;100145.53;4932605;28;125249;-78
2023/03/25 06:41:24;;;;;;;4.53;1.27;;;;;;;12.18;57.70;100153.50;4962882;28;124235;-78
2023/03/25 06:44:03;;;;;;;7.18;1.35;;;;;;;12.18;57.37;100148.19;4947953;28;114443;-78
2023/03/25 06:47:05;;;;;;;4.50;1.30;;;;;;;12.17;57.13;100157.13;4970095;28;112842;-78
2023/03/25 06:49:44;;;;;;;7.10;1.30;;;;;;;12.17;57.18;100150.97;4930195;28;123785;-78
2023/03/25 06:52:11;;;;;;;8.00;1.35;;;;;;;12.19;57.24;100143.75;4958413;28;125107;-78
2023/03/25 06:54:38;;;;;;;9.43;1.40;;;;;;;12.23;57.14;100155.88;4938599;28;113895;-78
2023/03/25 06:57:05;;;;;;;4.63;1.27;;;;;;;12.29;57.31;100159.94;4929264;28;112985;-78
2023/03/25 06:59:33;;;;;;;5.10;1.20;;;;;;;12.32;57.34;100149.97;4946833;28;124422;-78
2023/03/25 07:02:00;;;;;;;5.80;1.33;;;;;;;12.37;57.11;100155.84;4937824;28;123661;-78
2023/03/25 07:04:27;;;;;;;6.68;1.45;;;;;;;12.41;57.33;100161.81;4937590;28;114375;-78
2023/03/25 07:06:54;;;;;;;4.47;1.33;;;;;;;12.46;57.08;100162.38;4950243;28;114066;-78
2023/03/25 07:09:23;;;;;;;8.40;1.80;;;;;;;12.50;57.12;100155.91;4957981;28;123273;-78
2023/03/25 07:11:50;;;;;;;5.65;1.58;;;;;;;12.55;57.22;100161.78;4927734;28;123344;-78
2023/03/25 07:14:18;;;;;;;4.90;1.40;;;;;;;12.61;56.91;100150.75;4929348;28;113902;-78
2023/03/25 07:16:45;;;;;;;5.40;1.42;;;;;;;12.66;56.92;100159.28;4947554;28;113237;-78
2023/03/25 07:19:12;;;;;;;7.53;1.30;;;;;;;12.71;56.94;100155.47;4954006;28;123407;-79
2023/03/25 07:21:39;;;;;;;8.30;1.67;;;;;;;12.74;56.84;100156.13;4948499;28;124254;-78
2023/03/25 07:24:07;;;;;;;8.63;1.60;;;;;;;12.78;56.74;100156.78;4931888;28;114408;-78
2023/03/25 07:26:34;;;;;;;5.47;1.38;;;;;;;12.81;56.64;100161.91;4928420;28;114290;-79
2023/03/25 07:29:02;;;;;;;4.90;1.40;;;;;;;12.84;56.57;100153.72;4950112;28;125792;-78
2023/03/25 07:31:30;;;;;;;6.82;1.73;;;;;;;12.87;56.46;100161.50;4949619;28;123571;-78
2023/03/25 07:33:58;;;;;;;6.90;1.75;;;;;;;12.89;56.58;100164.91;4934576;28;114877;-77
2023/03/25 07:36:25;;;;;;;9.27;1.90;;;;;;;12.92;56.35;100164.72;4948418;28;113649;-77
2023/03/25 07:38:53;;;;;;;5.50;1.70;;;;;;;12.95;56.33;100175.13;4963078;28;123429;-77
2023/03/25 07:41:23;;;;;;;7.50;1.77;;;;;;;12.98;56.31;100161.66;4937485;28;123171;-77
2023/03/25 07:44:19;;;;;;;5.38;1.48;;;;;;;13.05;56.34;100165.63;4931898;28;114214;-77
2023/03/25 07:46:48;;;;;;;5.90;1.83;;;;;;;13.12;56.48;100173.16;4947991;28;114595;-78
2023/03/25 07:49:15;;;;;;;10.10;2.00;;;;;;;13.19;56.41;100171.81;4941047;28;123568;-78
2023/03/25 07:51:44;;;;;;;9.15;2.15;;;;;;;13.20;56.27;100174.38;4968760;28;124270;-78
2023/03/25 07:54:11;;;;;;;6.47;1.50;;;;;;;13.20;56.27;100178.81;4968357;28;114901;-78
2023/03/25 07:56:38;;;;;;;7.40;1.90;;;;;;;13.18;56.17;100196.69;4952314;28;113184;-77
2023/03/25 07:59:06;;;;;;;14.00;1.80;;;;;;;13.15;56.30;100181.81;4939098;28;123616;-78
2023/03/25 08:01:33;;;;;;;6.60;1.67;;;;;;;13.11;56.19;100190.94;4955751;28;124968;-77
2023/03/25 08:04:00;;;;;;;6.78;1.42;;;;;;;13.07;56.09;100181.44;4955444;28;114318;-77
2023/03/25 08:06:27;;;;;;;10.30;2.00;;;;;;;13.04;56.11;100190.47;4938813;28;113300;-78
2023/03/25 08:08:54;;;;;;;8.93;1.98;;;;;;;13.00;56.18;100188.97;4954035;28;123757;-78
2023/03/25 08:11:21;;;;;;;7.18;1.50;;;;;;;13.00;56.29;100193.44;4933776;28;123952;-78
2023/03/25 08:13:49;;;;;;;11.57;1.45;;;;;;;12.99;56.46;100205.88;4958352;28;115920;-77
2023/03/25 08:16:16;;;;;;;10.77;2.00;;;;;;;13.01;56.47;100201.31;4964002;28;115132;-78
2023/03/25 08:18:51;;;;;;;10.90;2.00;;;;;;;13.05;56.30;100202.84;4936771;28;123076;-78
2023/03/25 08:21:26;;;;;;;;;;;;;;;13.06;56.47;100203.66;4952571;28;124303;-78
2023/03/25 08:23:57;;;;;;;5.75;1.88;;;;;;;13.11;56.42;100211.34;4936953;28;114083;-79
2023/03/25 08:26:25;;;;;;;8.80;1.63;;;;;;;13.12;56.48;100208.56;4954864;28;113652;-78
2023/03/25 08:28:56;;;;;;;6.43;1.52;;;;;;;13.15;56.50;100207.53;4954335;28;122380;-78
2023/03/25 08:31:25;;;;;;;14.40;1.98;;;;;;;13.15;56.51;100207.53;4938301;28;123377;-78
2023/03/25 08:33:52;;;;;;;10.75;1.80;;;;;;;13.15;56.55;100202.22;4971081;28;114255;-77
2023/03/25 08:36:21;;;;;;;8.95;2.00;;;;;;;13.17;56.56;100210.94;4950407;28;114242;-78
2023/03/25 08:38:49;;;;;;;7.35;1.52;;;;;;;13.16;56.49;100219.88;4966963;28;124131;-77
2023/03/25 08:41:17;;;;;;;9.85;1.85;;;;;;;13.16;56.50;100219.88;4946895;28;124208;-77
2023/03/25 08:43:45;;;;;;;7.95;1.92;;;;;;;13.15;56.62;100228.81;4954035;28;114030;-78
2023/03/25 08:46:12;;;;;;;10.98;1.80;;;;;;;13.14;56.65;100227.09;4953500;28;113340;-77
2023/03/25 08:48:39;;;;;;;8.82;2.08;;;;;;;13.15;56.76;100228.81;4953225;28;123971;-77
2023/03/25 08:51:07;;;;;;;15.75;1.90;;;;;;;13.17;56.62;100226.91;4954133;28;123521;-77
2023/03/25 08:53:35;;;;;;;8.43;1.55;;;;;;;13.18;56.65;100228.59;4960228;28;114652;-78
2023/03/25 08:56:02;;;;;;;8.70;1.90;;;;;;;13.19;56.70;100225.00;4958936;28;114023;-78
2023/03/25 08:58:30;;;;;;;9.48;1.75;;;;;;;13.17;56.46;100237.53;4956495;28;122136;-77
2023/03/25 09:00:57;;;;;;;8.20;1.85;;;;;;;13.12;56.54;100234.31;4965737;28;123897;-78
2023/03/25 09:03:26;;;;;;;4.10;1.60;;;;;;;13.08;56.61;100232.81;4953561;28;114014;-77
2023/03/25 09:05:53;;;;;;;8.85;1.90;;;;;;;13.05;56.75;100239.16;4937579;28;116588;-78
2023/03/25 09:08:21;;;;;;;6.45;1.85;;;;;;;13.01;56.95;100225.22;4949242;28;126139;-77
2023/03/25 09:10:48;;;;;;;7.90;2.03;;;;;;;13.01;57.09;100233.19;4941914;28;124655;-78
2023/03/25 09:13:15;;;;;;;8.02;1.73;;;;;;;13.03;57.17;100226.00;4953197;28;114077;-77
2023/03/25 09:15:44;;;;;;;9.65;2.20;;;;;;;13.05;57.27;100217.91;4937039;28;113936;-77
2023/03/25 09:18:11;;;;;;;8.98;2.35;;;;;;;13.09;57.24;100226.53;4935881;28;125169;-77
2023/03/25 09:20:40;;;;;;;10.38;2.30;;;;;;;13.12;57.44;100218.38;4965003;28;123045;-78
2023/03/25 09:23:08;;;;;;;11.65;2.13;;;;;;;13.19;57.66;100225.00;4940548;28;115307;-77
2023/03/25 09:25:36;;;;;;;6.07;1.75;;;;;;;13.28;57.80;100203.13;4953565;28;114228;-78
2023/03/25 09:28:04;;;;;;;12.23;2.50;;;;;;;13.40;57.89;100212.94;4958268;28;124055;-77
2023/03/25 09:30:31;;;;;;;9.45;2.10;;;;;;;13.52;57.77;100210.41;4958490;28;124023;-78
2023/03/25 09:32:59;;;;;;;7.95;2.08;;;;;;;13.60;57.71;100213.44;4958422;28;113742;-78
2023/03/25 09:35:27;;;;;;;9.05;2.38;;;;;;;13.70;57.60;100214.50;4949464;28;113577;-78
2023/03/25 09:37:54;;;;;;;9.43;1.98;;;;;;;13.79;57.73;100213.88;4950669;28;124923;-77
2023/03/25 09:40:21;;;;;;;13.10;2.45;;;;;;;13.90;57.49;100209.59;4948607;28;123473;-78
2023/03/25 09:42:58;;;;;;;12.25;2.45;;;;;;;13.99;57.25;100214.28;4951423;28;115101;-78
2023/03/25 09:45:46;;;;;;;11.77;2.38;;;;;;;14.07;57.29;100211.97;4964547;28;113875;-78
2023/03/25 09:48:27;;;;;;;11.13;2.65;;;;;;;14.14;57.18;100210.56;4946650;28;123160;-79
2023/03/25 09:50:59;;;;;;;8.88;2.50;;;;;;;14.25;56.99;100214.28;4938470;28;123063;-79
2023/03/25 09:53:41;;;;;;;8.35;2.30;;;;;;;14.33;57.21;100227.91;4950197;28;114314;-78
2023/03/25 09:56:17;;;;;;;11.25;2.58;;;;;;;14.40;56.59;100223.84;4948921;28;115351;-79
2023/03/25 09:58:53;;;;;;;12.13;2.47;;;;;;;14.47;56.54;100222.47;4950137;28;124178;-78
2023/03/25 10:01:26;;;;;;;15.35;2.38;;;;;;;14.53;56.68;100230.00;4948093;28;123930;-79
2023/03/25 10:04:13;;;;;;;10.83;2.63;;;;;;;14.58;56.23;100211.91;4934291;28;114108;-78
2023/03/25 10:06:50;;;;;;;8.70;2.40;;;;;;;14.60;56.17;100238.47;4949352;28;112949;-78
2023/03/25 10:09:32;;;;;;;8.45;2.20;;;;;;;14.57;55.94;100228.84;4948677;28;124371;-77
2023/03/25 10:12:11;;;;;;;6.55;2.20;;;;;;;14.56;55.87;100234.25;4949324;28;124090;-78
2023/03/25 10:14:58;;;;;;;6.60;2.30;;;;;;;14.51;55.73;100231.94;4953933;28;115330;-78
2023/03/25 10:17:56;;;;;;;8.75;2.03;;;;;;;14.47;55.80;100241.13;4935589;28;115330;-79
2023/03/25 10:20:36;;;;;;;13.55;2.33;;;;;;;14.42;55.77;100248.56;4923231;28;125106;-78
2023/03/25 10:23:13;;;;;;;13.77;2.60;;;;;;;14.38;55.85;100247.09;4946474;28;124560;-77
2023/03/25 10:25:44;;;;;;;14.23;2.50;;;;;;;14.28;55.78;100246.03;4941303;28;113930;-78
2023/03/25 10:28:18;;;;;;;12.55;2.58;;;;;;;14.21;56.25;100251.78;4948926;28;115045;-78
2023/03/25 10:30:50;;;;;;;12.40;2.78;;;;;;;14.15;56.19;100257.53;4946687;28;123707;-79
2023/03/25 10:33:30;;;;;;;15.10;2.70;;;;;;;14.11;56.18;100266.72;4963074;28;124263;-78
2023/03/25 10:36:00;;;;;;;13.20;2.50;;;;;;;14.08;56.24;100258.91;4960118;28;113351;-77
2023/03/25 10:38:30;;;;;;;6.80;2.35;;;;;;;14.04;56.25;100270.75;4946965;28;114584;-78
2023/03/25 10:41:09;;;;;;;10.93;2.40;;;;;;;14.05;56.54;100260.94;4964371;28;124380;-78
2023/03/25 10:43:39;;;;;;;15.70;2.80;;;;;;;14.05;56.67;100261.78;4963785;28;123327;-78
2023/03/25 10:46:15;;;;;;;13.73;2.83;;;;;;;14.04;56.53;100252.13;4954059;28;115034;-78
2023/03/25 10:48:45;;;;;;;10.52;2.30;;;;;;;14.02;56.63;100267.34;4963992;28;114386;-78
2023/03/25 10:51:17;;;;;;;8.75;1.92;;;;;;;13.96;56.41;100273.09;4953807;28;123555;-78
2023/03/25 10:53:48;;;;;;;7.97;1.70;;;;;;;13.86;56.33;100272.00;4953461;28;124856;-78
2023/03/25 10:56:20;;;;;;;7.50;1.95;;;;;;;13.79;56.59;100256.47;4945990;28;115490;-77
2023/03/25 10:58:51;;;;;;;15.20;2.40;;;;;;;13.73;56.61;100267.53;4948074;28;114567;-77
2023/03/25 11:01:27;;;;;;;10.60;2.58;;;;;;;13.68;56.87;100264.31;4951549;28;124938;-79
2023/03/25 11:03:57;;;;;;;10.48;2.60;;;;;;;13.63;56.95;100274.41;4956737;28;125290;-78
2023/03/25 11:06:29;;;;;;;10.57;2.20;;;;;;;13.58;56.85;100252.56;4977931;28;115280;-77
2023/03/25 11:09:17;;;;;;;6.95;2.20;;;;;;;13.53;56.99;100270.66;4954581;28;113560;-77
2023/03/25 11:11:46;;;;;;;13.13;2.47;;;;;;;13.51;57.29;100256.63;4935468;28;124086;-77
2023/03/25 11:14:13;;;;;;;10.60;2.58;;;;;;;13.50;57.21;100276.19;4953170;28;123353;-77
2023/03/25 11:16:47;;;;;;;15.30;2.70;;;;;;;13.50;57.36;100273.53;4957034;28;113377;-77
2023/03/25 11:19:21;;;;;;;13.60;2.95;;;;;;;13.52;57.61;100268.94;4960164;28;113850;-76
2023/03/25 11:21:55;;;;;;;9.75;2.63;;;;;;;13.58;57.87;100268.53;4970231;28;124084;-77
2023/03/25 11:24:30;;;;;;;11.07;2.80;;;;;;;13.67;58.07;100262.59;4949472;28;124355;-77
2023/03/25 11:26:57;;;;;;;10.17;2.80;;;;;;;13.80;58.25;100268.78;4935372;28;113601;-77
2023/03/25 11:29:26;;;;;;;12.73;3.50;;;;;;;13.94;58.54;100265.22;4961631;28;114427;-78
2023/03/25 11:32:06;;;;;;;18.63;4.50;;;;;;;14.08;58.74;100266.91;4947560;28;124719;-79
2023/03/25 11:34:40;;;;;;;13.85;3.78;;;;;;;14.21;58.48;100262.44;4961585;28;123993;-78
2023/03/25 11:37:21;;;;;;;14.40;3.58;;;;;;;14.32;58.15;100268.84;4949418;28;115171;-78